createdAt,value
2023-03-07T00:01:52.558Z,99586.47
2023-03-07T00:04:21.841Z,99578.41
2023-03-07T00:06:49.961Z,99583.06
2023-03-07T00:09:17.932Z,99579.63
2023-03-07T00:11:45.799Z,99575.31
2023-03-07T00:14:13.682Z,99582.88
2023-03-07T00:16:41.608Z,99580.88
2023-03-07T00:19:09.598Z,99576.44
2023-03-07T00:21:38.958Z,99572.09
2023-03-07T00:24:07.768Z,99576.22
2023-03-07T00:26:39.547Z,99488.25
2023-03-07T00:29:09.622Z,99562.69
2023-03-07T00:31:38.172Z,99505.66
2023-03-07T00:34:06.238Z,99568.59
2023-03-07T00:36:34.301Z,99546.19
2023-03-07T00:39:04.299Z,99555.28
2023-03-07T00:41:32.110Z,99545.41
2023-03-07T00:44:00.037Z,99505.44
2023-03-07T00:46:28.070Z,99553.41
2023-03-07T00:48:55.977Z,99556.63
2023-03-07T00:51:25.014Z,99526.28
2023-03-07T00:53:53.166Z,99562.06
2023-03-07T00:56:24.498Z,99546.53
2023-03-07T00:58:53.146Z,99541.88
2023-03-07T01:01:23.642Z,99531.56
2023-03-07T01:03:53.926Z,99517.53
2023-03-07T01:06:24.882Z,99539.66
2023-03-07T01:08:52.736Z,99519.28
2023-03-07T01:11:22.163Z,99531.78
2023-03-07T01:13:50.115Z,99543.09
2023-03-07T01:16:20.448Z,99499.13
2023-03-07T01:18:51.250Z,99530.34
2023-03-07T01:21:22.129Z,99448.13
2023-03-07T01:23:50.236Z,99527.13
2023-03-07T01:26:19.878Z,99519.47
2023-03-07T01:28:50.827Z,99521.69
2023-03-07T01:31:19.215Z,99519.03
2023-03-07T01:33:48.648Z,99507.16
2023-03-07T01:36:19.447Z,99510.47
2023-03-07T01:38:49.939Z,99522.34
2023-03-07T01:41:18.283Z,99511.94
2023-03-07T01:43:46.301Z,99502.44
2023-03-07T01:46:35.391Z,99510.53
2023-03-07T01:49:09.510Z,99502.66
2023-03-07T01:51:40.236Z,99503.44
2023-03-07T01:54:10.281Z,99502.66
2023-03-07T01:56:40.336Z,99456.66
2023-03-07T01:59:08.472Z,99491.13
2023-03-07T02:01:38.360Z,99469.53
2023-03-07T02:04:12.928Z,99480.63
2023-03-07T02:06:41.287Z,99491.94
2023-03-07T02:09:15.832Z,99477.84
2023-03-07T02:11:45.919Z,99476.97
2023-03-07T02:14:13.987Z,99492.59
2023-03-07T02:16:44.207Z,99491.50
2023-03-07T02:19:23.757Z,99436.19
2023-03-07T02:22:01.618Z,99486.94
2023-03-07T02:24:34.881Z,99469.22
2023-03-07T02:27:05.371Z,99401.16
2023-03-07T02:29:33.304Z,99442.72
2023-03-07T02:32:01.172Z,99477.09
2023-03-07T02:34:31.370Z,99440.63
2023-03-07T02:37:02.707Z,99470.53
2023-03-07T02:39:31.083Z,99464.78
2023-03-07T02:42:03.728Z,99460.13
2023-03-07T02:44:32.970Z,99436.28
2023-03-07T02:47:00.793Z,99458.34
2023-03-07T02:49:28.908Z,99454.03
2023-03-07T02:52:00.632Z,99452.13
2023-03-07T02:54:28.552Z,99427.19
2023-03-07T02:56:56.952Z,99450.91
2023-03-07T02:59:24.764Z,99442.38
2023-03-07T03:01:54.066Z,99439.94
2023-03-07T03:04:22.120Z,99441.38
2023-03-07T03:06:50.168Z,99438.63
2023-03-07T03:09:18.240Z,99439.28
2023-03-07T03:11:46.614Z,99436.72
2023-03-07T03:14:14.448Z,99416.88
2023-03-07T03:16:43.536Z,99429.31
2023-03-07T03:19:13.226Z,99406.25
2023-03-07T03:21:41.078Z,99430.75
2023-03-07T03:24:10.266Z,99425.41
2023-03-07T03:26:38.727Z,99412.22
2023-03-07T03:29:07.135Z,99428.84
2023-03-07T03:31:35.551Z,99423.53
2023-03-07T03:34:05.243Z,99415.56
2023-03-07T03:36:34.623Z,99411.78
2023-03-07T03:39:02.462Z,99389.63
2023-03-07T03:41:30.537Z,99412.91
2023-03-07T03:43:58.479Z,99412.22
2023-03-07T03:46:27.002Z,99413.00
2023-03-07T03:48:56.199Z,99357.72
2023-03-07T03:51:25.803Z,99411.78
2023-03-07T03:53:57.686Z,99374.44
2023-03-07T03:56:27.720Z,99406.25
2023-03-07T03:58:57.098Z,99401.69
2023-03-07T04:01:27.348Z,99401.69
2023-03-07T04:03:56.020Z,99406.91
2023-03-07T04:06:25.623Z,99406.00
2023-03-07T04:08:56.086Z,99410.66
2023-03-07T04:11:25.689Z,99393.16
2023-03-07T04:13:54.250Z,99403.78
2023-03-07T04:16:23.030Z,99402.78
2023-03-07T04:18:51.387Z,99375.19
2023-03-07T04:21:20.446Z,99335.97
2023-03-07T04:23:49.750Z,99354.16
2023-03-07T04:26:19.014Z,99400.69
2023-03-07T04:28:46.918Z,99388.06
2023-03-07T04:31:16.606Z,99363.56
2023-03-07T04:33:44.987Z,99395.34
2023-03-07T04:36:13.592Z,99391.03
2023-03-07T04:38:42.555Z,99246.97
2023-03-07T04:41:12.067Z,99363.91
2023-03-07T04:43:41.452Z,99389.03
2023-03-07T04:46:10.630Z,99322.00
2023-03-07T04:48:38.502Z,99378.50
2023-03-07T04:51:07.041Z,99286.38
2023-03-07T04:53:35.035Z,99378.41
2023-03-07T04:56:04.780Z,99381.06
2023-03-07T04:58:33.392Z,99366.22
2023-03-07T05:01:03.423Z,99304.09
2023-03-07T05:03:35.062Z,99339.06
2023-03-07T05:06:04.629Z,99378.94
2023-03-07T05:08:33.292Z,99367.88
2023-03-07T05:11:01.196Z,99333.53
2023-03-07T05:13:29.363Z,99361.00
2023-03-07T05:15:59.226Z,99374.50
2023-03-07T05:18:29.250Z,99360.78
2023-03-07T05:20:57.394Z,99362.66
2023-03-07T05:23:25.307Z,99363.91
2023-03-07T05:25:53.281Z,99355.50
2023-03-07T05:28:21.303Z,99358.81
2023-03-07T05:30:49.602Z,99357.91
2023-03-07T05:33:17.691Z,99332.88
2023-03-07T05:35:48.291Z,99349.59
2023-03-07T05:38:16.193Z,99359.34
2023-03-07T05:40:44.217Z,99359.69
2023-03-07T05:43:12.151Z,99283.50
2023-03-07T05:45:40.029Z,99340.91
2023-03-07T05:48:08.033Z,99356.63
2023-03-07T05:50:36.006Z,99354.53
2023-03-07T05:53:05.210Z,99355.84
2023-03-07T05:55:33.464Z,99355.84
2023-03-07T05:58:01.677Z,99352.19
2023-03-07T06:00:29.523Z,99337.13
2023-03-07T06:02:57.595Z,99349.19
2023-03-07T06:05:25.627Z,99318.06
2023-03-07T06:07:53.465Z,99336.66
2023-03-07T06:10:22.950Z,99336.66
2023-03-07T06:12:52.110Z,99339.50
2023-03-07T06:15:20.494Z,99337.19
2023-03-07T06:17:48.493Z,99338.16
2023-03-07T06:20:17.186Z,99337.28
2023-03-07T06:22:44.994Z,99339.16
2023-03-07T06:25:13.103Z,99322.44
2023-03-07T06:27:42.468Z,99331.63
2023-03-07T06:30:13.963Z,99319.53
2023-03-07T06:32:41.991Z,99326.06
2023-03-07T06:35:11.120Z,99322.59
2023-03-07T06:37:38.953Z,99326.25
2023-03-07T06:40:09.599Z,99323.97
2023-03-07T06:42:37.540Z,99183.63
2023-03-07T06:45:08.011Z,99314.84
2023-03-07T06:47:35.879Z,99264.75
2023-03-07T06:50:04.118Z,99286.38
2023-03-07T06:52:32.021Z,99305.75
2023-03-07T06:55:00.628Z,99305.59
2023-03-07T06:57:29.527Z,99276.53
2023-03-07T06:59:57.479Z,99246.47
2023-03-07T07:02:26.941Z,99306.56
2023-03-07T07:04:54.943Z,99301.44
2023-03-07T07:07:22.909Z,99304.25
2023-03-07T07:09:50.756Z,99300.00
2023-03-07T07:12:19.074Z,99296.97
2023-03-07T07:14:48.103Z,99247.13
2023-03-07T07:17:16.096Z,99280.34
2023-03-07T07:19:45.356Z,99274.66
2023-03-07T07:22:13.730Z,99260.91
2023-03-07T07:24:41.656Z,99263.06
2023-03-07T07:27:12.213Z,99260.72
2023-03-07T07:29:40.566Z,99259.84
2023-03-07T07:32:09.014Z,99262.09
2023-03-07T07:34:37.138Z,99241.63
2023-03-07T07:37:06.570Z,99246.47
2023-03-07T07:39:34.508Z,99235.41
2023-03-07T07:42:02.397Z,99238.06
2023-03-07T07:44:30.876Z,99235.66
2023-03-07T07:46:59.371Z,99200.56
2023-03-07T07:49:27.501Z,99232.66
2023-03-07T07:51:55.479Z,99228.19
2023-03-07T07:54:24.770Z,99220.88
2023-03-07T07:56:52.693Z,99213.13
2023-03-07T07:59:20.822Z,99199.06
2023-03-07T08:01:48.711Z,99209.00
2023-03-07T08:04:18.424Z,99224.38
2023-03-07T08:06:46.428Z,99189.75
2023-03-07T08:09:14.817Z,99191.91
2023-03-07T08:11:44.072Z,99184.72
2023-03-07T08:14:12.062Z,99195.88
2023-03-07T08:16:39.936Z,99206.47
2023-03-07T08:19:07.888Z,99202.97
2023-03-07T08:21:35.863Z,99191.31
2023-03-07T08:24:04.228Z,99201.84
2023-03-07T08:26:32.746Z,99093.91
2023-03-07T08:29:02.132Z,99205.13
2023-03-07T08:31:29.997Z,99206.59
2023-03-07T08:33:58.058Z,99201.31
2023-03-07T08:36:26.211Z,99194.09
2023-03-07T08:38:54.336Z,99179.28
2023-03-07T08:41:23.936Z,99197.25
2023-03-07T08:43:52.257Z,99185.25
2023-03-07T08:46:21.659Z,99162.16
2023-03-07T08:48:49.619Z,99178.66
2023-03-07T08:51:18.973Z,99174.16
2023-03-07T08:53:47.192Z,99173.06
2023-03-07T08:56:17.802Z,99150.81
2023-03-07T08:58:45.850Z,99162.88
2023-03-07T09:01:14.005Z,99159.19
2023-03-07T09:03:44.121Z,99162.66
2023-03-07T09:06:17.098Z,99161.56
2023-03-07T09:08:45.126Z,99132.97
2023-03-07T09:11:13.013Z,99153.88
2023-03-07T09:13:51.544Z,99152.13
2023-03-07T09:16:22.180Z,99092.53
2023-03-07T09:18:51.942Z,99068.25
2023-03-07T09:21:19.978Z,99088.75
2023-03-07T09:23:48.126Z,99068.16
2023-03-07T09:26:16.444Z,99138.81
2023-03-07T09:28:44.475Z,99135.81
2023-03-07T09:31:15.453Z,99133.09
2023-03-07T09:33:46.560Z,99127.69
2023-03-07T09:36:18.245Z,99043.81
2023-03-07T09:38:47.090Z,99112.88
2023-03-07T09:41:51.735Z,99118.94
2023-03-07T09:44:27.001Z,99113.13
2023-03-07T09:47:11.072Z,99112.25
2023-03-07T09:49:46.220Z,99112.63
2023-03-07T09:52:18.120Z,99112.22
2023-03-07T09:54:49.669Z,99084.53
2023-03-07T09:57:24.531Z,99101.44
2023-03-07T09:59:56.968Z,99099.28
2023-03-07T10:02:30.411Z,99096.84
2023-03-07T10:05:05.524Z,99090.59
2023-03-07T10:07:36.841Z,99088.34
2023-03-07T10:10:12.203Z,99079.72
2023-03-07T10:12:58.812Z,99077.72
2023-03-07T10:15:42.558Z,99070.97
2023-03-07T10:18:22.668Z,98983.25
2023-03-07T10:20:56.860Z,99049.13
2023-03-07T10:23:38.421Z,99032.72
2023-03-07T10:26:12.730Z,99051.66
2023-03-07T10:28:43.189Z,99056.88
2023-03-07T10:31:21.281Z,99009.81
2023-03-07T10:33:50.791Z,99053.47
2023-03-07T10:36:21.853Z,99051.66
2023-03-07T10:39:03.028Z,99049.34
2023-03-07T10:41:31.364Z,99047.03
2023-03-07T10:43:59.530Z,99037.69
2023-03-07T10:46:30.349Z,99036.38
2023-03-07T10:49:10.695Z,99029.97
2023-03-07T10:51:50.788Z,99021.44
2023-03-07T10:54:22.793Z,99023.19
2023-03-07T10:57:08.918Z,99014.25
2023-03-07T10:59:38.330Z,99016.91
2023-03-07T11:02:30.648Z,98965.41
2023-03-07T11:04:59.451Z,98998.03
2023-03-07T11:07:30.595Z,99012.72
2023-03-07T11:10:03.814Z,99004.97
2023-03-07T11:12:32.046Z,99002.53
2023-03-07T11:15:12.094Z,98971.56
2023-03-07T11:17:43.628Z,98979.78
2023-03-07T11:20:22.409Z,98978.25
2023-03-07T11:22:51.015Z,98975.38
2023-03-07T11:25:23.390Z,98958.75
2023-03-07T11:27:55.206Z,98950.16
2023-03-07T11:30:26.472Z,98959.53
2023-03-07T11:33:11.663Z,98960.16
2023-03-07T11:35:58.603Z,98947.25
2023-03-07T11:38:37.950Z,98948.75
2023-03-07T11:41:13.406Z,98957.28
2023-03-07T11:43:59.364Z,98948.41
2023-03-07T11:46:39.827Z,98939.00
2023-03-07T11:49:26.648Z,98927.63
2023-03-07T11:52:09.235Z,98928.66
2023-03-07T11:54:46.112Z,98918.31
2023-03-07T11:57:28.419Z,98917.84
2023-03-07T12:00:19.426Z,98925.44
2023-03-07T12:03:16.926Z,98915.69
2023-03-07T12:06:00.384Z,98903.22
2023-03-07T12:08:50.185Z,98900.81
2023-03-07T12:11:34.154Z,98900.09
2023-03-07T12:14:15.813Z,98901.13
2023-03-07T12:16:54.025Z,98897.66
2023-03-07T12:19:45.578Z,98881.72
2023-03-07T12:22:28.070Z,98874.06
2023-03-07T12:25:13.212Z,98840.31
2023-03-07T12:27:46.732Z,98868.13
2023-03-07T12:30:19.854Z,98866.78
2023-03-07T12:32:50.264Z,98862.56
2023-03-07T12:35:25.393Z,98856.50
2023-03-07T12:38:00.295Z,98856.28
2023-03-07T12:40:35.518Z,98842.31
2023-03-07T12:43:12.296Z,98842.06
2023-03-07T12:45:47.108Z,98831.31
2023-03-07T12:48:21.733Z,98839.78
2023-03-07T12:50:57.984Z,98800.00
2023-03-07T12:53:34.640Z,98820.06
2023-03-07T12:56:11.401Z,98816.72
2023-03-07T12:58:45.990Z,98817.78
2023-03-07T13:01:20.489Z,98823.09
2023-03-07T13:03:56.553Z,98811.03
2023-03-07T13:06:25.674Z,98763.63
2023-03-07T13:08:56.693Z,98805.63
2023-03-07T13:11:26.948Z,98794.47
2023-03-07T13:13:57.227Z,98791.94
2023-03-07T13:16:44.278Z,98792.81
2023-03-07T13:19:49.364Z,98789.31
2023-03-07T13:23:00.208Z,98783.06
2023-03-07T13:25:56.296Z,98781.94
2023-03-07T13:28:45.088Z,98764.63
2023-03-07T13:31:51.575Z,98757.69
2023-03-07T13:34:49.975Z,98598.00
2023-03-07T13:37:56.781Z,98738.06
2023-03-07T13:40:50.111Z,98744.34
2023-03-07T13:44:01.594Z,98737.44
2023-03-07T13:46:51.878Z,98728.63
2023-03-07T13:49:45.149Z,98717.44
2023-03-07T13:52:32.404Z,98708.88
2023-03-07T13:55:05.309Z,98711.50
2023-03-07T13:57:41.936Z,98539.75
2023-03-07T14:00:32.944Z,98698.09
2023-03-07T14:03:02.104Z,98690.38
2023-03-07T14:05:33.036Z,98691.19
2023-03-07T14:08:01.373Z,98690.22
2023-03-07T14:10:32.829Z,98687.53
2023-03-07T14:13:42.059Z,98678.78
2023-03-07T14:16:25.718Z,98669.09
2023-03-07T14:19:04.882Z,98674.03
2023-03-07T14:21:50.189Z,98662.66
2023-03-07T14:24:44.127Z,98651.38
2023-03-07T14:27:16.554Z,98647.50
2023-03-07T14:29:52.116Z,98655.06
2023-03-07T14:32:26.142Z,98596.41
2023-03-07T14:34:54.404Z,98644.63
2023-03-07T14:37:26.477Z,98642.88
2023-03-07T14:40:08.651Z,98607.84
2023-03-07T14:42:45.163Z,98631.44
2023-03-07T14:45:26.073Z,98628.66
2023-03-07T14:48:26.639Z,98619.22
2023-03-07T14:50:55.163Z,98600.84
2023-03-07T14:53:24.722Z,98607.84
2023-03-07T14:55:55.440Z,98592.75
2023-03-07T14:58:27.702Z,98582.19
2023-03-07T15:01:00.457Z,98594.44
2023-03-07T15:03:30.196Z,98557.44
2023-03-07T15:05:59.267Z,98580.97
2023-03-07T15:08:29.805Z,98574.91
2023-03-07T15:11:04.169Z,98584.47
2023-03-07T15:13:37.534Z,98581.75
2023-03-07T15:16:10.189Z,98568.78
2023-03-07T15:18:41.631Z,98570.41
2023-03-07T15:21:17.620Z,98562.41
2023-03-07T15:23:53.954Z,98556.19
2023-03-07T15:26:24.274Z,98564.56
2023-03-07T15:29:00.555Z,98557.59
2023-03-07T15:31:31.894Z,98512.06
2023-03-07T15:34:13.296Z,98542.81
2023-03-07T15:36:41.323Z,98547.84
2023-03-07T15:39:27.868Z,98533.13
2023-03-07T15:42:04.176Z,98481.69
2023-03-07T15:44:34.306Z,98518.41
2023-03-07T15:47:14.587Z,98513.31
2023-03-07T15:49:43.950Z,98510.59
2023-03-07T15:52:23.997Z,98517.31
2023-03-07T15:54:54.650Z,98486.94
2023-03-07T15:57:25.487Z,98430.16
2023-03-07T15:59:58.584Z,98485.31
2023-03-07T16:02:37.717Z,98486.03
2023-03-07T16:05:07.796Z,98473.72
2023-03-07T16:07:35.666Z,98460.03
2023-03-07T16:10:03.723Z,98466.94
2023-03-07T16:12:32.225Z,98425.69
2023-03-07T16:15:04.923Z,98464.25
2023-03-07T16:17:35.550Z,98369.69
2023-03-07T16:20:04.453Z,98442.75
2023-03-07T16:22:32.454Z,98447.91
2023-03-07T16:25:00.346Z,98434.66
2023-03-07T16:27:29.608Z,98402.38
2023-03-07T16:30:01.315Z,98430.50
2023-03-07T16:32:29.386Z,98387.63
2023-03-07T16:34:57.209Z,98415.91
2023-03-07T16:37:26.070Z,98425.19
2023-03-07T16:39:54.124Z,98425.19
2023-03-07T16:42:23.903Z,98415.72
2023-03-07T16:44:53.155Z,98413.16
2023-03-07T16:47:22.512Z,98412.22
2023-03-07T16:49:51.012Z,98414.09
2023-03-07T16:52:18.898Z,98389.94
2023-03-07T16:54:48.319Z,98386.38
2023-03-07T16:57:17.636Z,98395.22
2023-03-07T16:59:47.974Z,98401.25
2023-03-07T17:02:18.288Z,98369.25
2023-03-07T17:04:47.871Z,98345.72
2023-03-07T17:07:20.668Z,98380.56
2023-03-07T17:09:49.112Z,98359.09
2023-03-07T17:12:19.173Z,98360.03
2023-03-07T17:14:47.399Z,98339.31
2023-03-07T17:17:19.755Z,98343.56
2023-03-07T17:19:49.300Z,98349.84
2023-03-07T17:22:19.312Z,98319.47
2023-03-07T17:24:48.128Z,98343.13
2023-03-07T17:27:16.283Z,98342.31
2023-03-07T17:29:46.576Z,98323.44
2023-03-07T17:32:14.984Z,98245.75
2023-03-07T17:34:43.574Z,98285.84
2023-03-07T17:37:13.440Z,98284.06
2023-03-07T17:39:42.455Z,98254.41
2023-03-07T17:42:10.606Z,98297.31
2023-03-07T17:44:39.418Z,98295.56
2023-03-07T17:47:07.626Z,98231.72
2023-03-07T17:49:37.891Z,98277.53
2023-03-07T17:52:07.395Z,98269.66
2023-03-07T17:54:36.899Z,98285.34
2023-03-07T17:57:05.053Z,98204.25
2023-03-07T17:59:35.852Z,98247.22
2023-03-07T18:02:05.756Z,98266.59
2023-03-07T18:04:33.873Z,98252.06
2023-03-07T18:07:01.774Z,98264.06
2023-03-07T18:09:29.864Z,98221.59
2023-03-07T18:11:59.110Z,98241.88
2023-03-07T18:14:27.627Z,98185.09
2023-03-07T18:16:55.952Z,98225.38
2023-03-07T18:19:26.972Z,98146.06
2023-03-07T18:21:55.536Z,98171.28
2023-03-07T18:24:27.398Z,98162.63
2023-03-07T18:26:56.879Z,98211.72
2023-03-07T18:29:27.434Z,98234.63
2023-03-07T18:31:55.349Z,98222.59
2023-03-07T18:34:24.864Z,98229.72
2023-03-07T18:36:54.355Z,98223.00
2023-03-07T18:39:23.279Z,98221.34
2023-03-07T18:41:51.629Z,98181.28
2023-03-07T18:44:19.815Z,98203.78
2023-03-07T18:46:49.645Z,98218.25
2023-03-07T18:49:17.924Z,98216.59
2023-03-07T18:51:46.167Z,98206.34
2023-03-07T18:54:14.250Z,98192.72
2023-03-07T18:56:42.794Z,98199.59
2023-03-07T18:59:10.711Z,98132.75
2023-03-07T19:01:39.762Z,98180.81
2023-03-07T19:04:09.355Z,98168.59
2023-03-07T19:06:39.676Z,98145.28
2023-03-07T19:09:08.299Z,98162.78
2023-03-07T19:11:36.604Z,98165.34
2023-03-07T19:14:04.668Z,98161.13
2023-03-07T19:16:32.705Z,98159.44
2023-03-07T19:19:00.568Z,98155.16
2023-03-07T19:21:31.144Z,98158.56
2023-03-07T19:24:00.498Z,98098.63
2023-03-07T19:26:29.157Z,98149.13
2023-03-07T19:28:57.875Z,98097.84
2023-03-07T19:31:28.446Z,98125.69
2023-03-07T19:33:57.412Z,98130.38
2023-03-07T19:36:27.489Z,98113.84
2023-03-07T19:38:59.253Z,98098.31
2023-03-07T19:41:28.929Z,98119.34
2023-03-07T19:43:57.730Z,98106.44
2023-03-07T19:46:26.139Z,98115.94
2023-03-07T19:48:54.351Z,98107.41
2023-03-07T19:51:24.354Z,98104.88
2023-03-07T19:53:56.823Z,98088.16
2023-03-07T19:56:28.555Z,98077.28
2023-03-07T19:58:59.668Z,98078.88
2023-03-07T20:01:28.949Z,98086.91
2023-03-07T20:03:57.139Z,98087.75
2023-03-07T20:06:27.543Z,98081.75
2023-03-07T20:08:55.869Z,98075.78
2023-03-07T20:11:27.521Z,98069.00
2023-03-07T20:13:57.108Z,98007.25
2023-03-07T20:16:29.084Z,98058.78
2023-03-07T20:18:58.934Z,98040.31
2023-03-07T20:21:28.730Z,98056.22
2023-03-07T20:23:59.794Z,98062.19
2023-03-07T20:26:32.151Z,98053.56
2023-03-07T20:29:01.653Z,98051.00
2023-03-07T20:31:30.504Z,98060.41
2023-03-07T20:33:59.604Z,98052.69
2023-03-07T20:36:29.205Z,98056.13
2023-03-07T20:39:03.489Z,98040.69
2023-03-07T20:41:33.789Z,98034.69
2023-03-07T20:44:03.553Z,98017.97
2023-03-07T20:46:32.310Z,98033.69
2023-03-07T20:49:01.976Z,98011.94
2023-03-07T20:51:31.507Z,98013.84
2023-03-07T20:54:00.550Z,97987.75
2023-03-07T20:56:30.947Z,98012.16
2023-03-07T20:59:00.483Z,98013.84
2023-03-07T21:01:30.402Z,97990.50
2023-03-07T21:04:01.337Z,97957.28
2023-03-07T21:06:29.198Z,98007.84
2023-03-07T21:08:59.818Z,98002.69
2023-03-07T21:11:28.420Z,97976.59
2023-03-07T21:13:56.246Z,98002.56
2023-03-07T21:16:27.282Z,97993.94
2023-03-07T21:19:01.205Z,97994.78
2023-03-07T21:21:31.043Z,97955.56
2023-03-07T21:23:59.806Z,97941.72
2023-03-07T21:26:29.612Z,97959.28
2023-03-07T21:28:57.904Z,97970.72
2023-03-07T21:31:29.227Z,97982.88
2023-03-07T21:33:58.896Z,97987.28
2023-03-07T21:36:28.008Z,97989.84
2023-03-07T21:38:57.079Z,97980.38
2023-03-07T21:41:25.963Z,97977.78
2023-03-07T21:43:54.776Z,97975.06
2023-03-07T21:46:23.416Z,97977.78
2023-03-07T21:48:52.625Z,97952.81
2023-03-07T21:51:21.026Z,97959.81
2023-03-07T21:53:49.271Z,97945.91
2023-03-07T21:56:18.841Z,97951.19
2023-03-07T21:58:49.330Z,97955.47
2023-03-07T22:01:19.223Z,97949.38
2023-03-07T22:03:47.194Z,97939.91
2023-03-07T22:06:17.092Z,97923.47
2023-03-07T22:08:44.986Z,97930.44
2023-03-07T22:11:13.894Z,97912.28
2023-03-07T22:13:43.166Z,97865.34
2023-03-07T22:16:14.008Z,97914.97
2023-03-07T22:18:42.087Z,97918.44
2023-03-07T22:21:13.689Z,97843.66
2023-03-07T22:23:43.358Z,97912.41
2023-03-07T22:26:12.966Z,97913.28
2023-03-07T22:28:41.563Z,97915.03
2023-03-07T22:31:11.895Z,97896.75
2023-03-07T22:33:40.461Z,97886.41
2023-03-07T22:36:12.976Z,97910.00
2023-03-07T22:38:43.244Z,97911.72
2023-03-07T22:41:12.895Z,97911.72
2023-03-07T22:43:40.839Z,97904.00
2023-03-07T22:46:09.464Z,97910.03
2023-03-07T22:48:37.823Z,97915.22
2023-03-07T22:51:06.642Z,97909.22
2023-03-07T22:53:35.596Z,97863.13
2023-03-07T22:56:08.858Z,97908.41
2023-03-07T22:58:36.823Z,97877.84
2023-03-07T23:01:12.271Z,97895.38
2023-03-07T23:03:40.354Z,97887.66
2023-03-07T23:06:08.420Z,97727.47
2023-03-07T23:08:36.606Z,97900.66
2023-03-07T23:11:08.001Z,97902.41
2023-03-07T23:13:36.550Z,97878.16
2023-03-07T23:16:08.196Z,97898.97
2023-03-07T23:18:36.747Z,97892.16
2023-03-07T23:21:04.985Z,97892.19
2023-03-07T23:23:33.053Z,97836.56
2023-03-07T23:26:00.969Z,97886.94
2023-03-07T23:28:30.269Z,97852.34
2023-03-07T23:30:58.590Z,97878.56
2023-03-07T23:33:26.824Z,97825.41
2023-03-07T23:35:54.959Z,97851.66
2023-03-07T23:38:23.093Z,97876.84
2023-03-07T23:40:50.945Z,97875.16
2023-03-07T23:43:18.757Z,97875.09
2023-03-07T23:45:48.463Z,97877.66
2023-03-07T23:48:16.517Z,97876.81
2023-03-07T23:50:44.916Z,97877.69
2023-03-07T23:53:13.024Z,97873.38
2023-03-07T23:55:41.768Z,97869.94
2023-03-07T23:58:09.791Z,97855.13
